createdAt,value
2023-05-06T00:00:22.569Z,71.77
2023-05-06T00:02:50.153Z,72.02
2023-05-06T00:05:20.523Z,72.24
2023-05-06T00:07:47.664Z,70.60
2023-05-06T00:10:15.030Z,68.91
2023-05-06T00:12:42.134Z,69.50
2023-05-06T00:15:09.789Z,69.97
2023-05-06T00:17:37.443Z,70.59
2023-05-06T00:20:05.226Z,71.45
2023-05-06T00:22:32.502Z,72.43
2023-05-06T00:24:59.557Z,72.22
2023-05-06T00:27:27.552Z,72.54
2023-05-06T00:29:54.600Z,72.03
2023-05-06T00:32:21.695Z,70.76
2023-05-06T00:34:49.084Z,70.58
2023-05-06T00:37:16.460Z,71.09
2023-05-06T00:39:43.773Z,70.97
2023-05-06T00:42:10.901Z,72.06
2023-05-06T00:44:38.079Z,72.67
2023-05-06T00:47:05.783Z,72.39
2023-05-06T00:49:33.153Z,73.46
2023-05-06T00:52:01.605Z,74.00
2023-05-06T00:54:30.057Z,72.18
2023-05-06T00:56:57.323Z,71.12
2023-05-06T00:59:24.611Z,70.98
2023-05-06T01:01:52.634Z,71.12
2023-05-06T01:04:21.367Z,72.18
2023-05-06T01:07:03.191Z,72.47
2023-05-06T01:09:55.612Z,72.14
2023-05-06T01:12:26.006Z,73.67
2023-05-06T01:15:16.638Z,73.61
2023-05-06T01:17:50.686Z,75.04
2023-05-06T01:20:21.294Z,74.74
2023-05-06T01:22:50.202Z,72.21
2023-05-06T01:25:22.124Z,72.24
2023-05-06T01:27:50.351Z,71.23
2023-05-06T01:30:19.590Z,71.28
2023-05-06T01:32:49.954Z,72.63
2023-05-06T01:35:27.616Z,72.66
2023-05-06T01:38:12.940Z,73.65
2023-05-06T01:40:44.477Z,74.02
2023-05-06T01:43:13.560Z,74.30
2023-05-06T01:45:42.829Z,73.52
2023-05-06T01:48:10.571Z,71.70
2023-05-06T01:50:38.114Z,71.33
2023-05-06T01:53:05.259Z,71.40
2023-05-06T01:55:32.490Z,70.92
2023-05-06T01:57:59.548Z,71.56
2023-05-06T02:00:27.139Z,71.15
2023-05-06T02:02:54.433Z,72.41
2023-05-06T02:05:22.011Z,72.88
2023-05-06T02:07:50.058Z,72.89
2023-05-06T02:10:19.464Z,72.32
2023-05-06T02:12:52.130Z,71.19
2023-05-06T02:15:19.452Z,70.49
2023-05-06T02:17:46.587Z,69.68
2023-05-06T02:20:13.770Z,69.56
2023-05-06T02:22:41.412Z,70.18
2023-05-06T02:25:09.443Z,70.86
2023-05-06T02:27:37.028Z,70.77
2023-05-06T02:30:04.516Z,71.10
2023-05-06T02:32:31.772Z,70.94
2023-05-06T02:34:59.112Z,71.53
2023-05-06T02:37:26.389Z,71.15
2023-05-06T02:39:53.633Z,68.04
2023-05-06T02:42:21.483Z,67.25
2023-05-06T02:44:48.613Z,67.04
2023-05-06T02:47:15.602Z,66.76
2023-05-06T02:49:44.861Z,66.50
2023-05-06T02:52:12.901Z,66.70
2023-05-06T02:54:40.191Z,67.16
2023-05-06T02:57:07.929Z,67.11
2023-05-06T02:59:36.104Z,67.53
2023-05-06T03:02:03.495Z,67.09
2023-05-06T03:04:31.315Z,65.90
2023-05-06T03:06:58.415Z,65.25
2023-05-06T03:09:25.817Z,65.08
2023-05-06T03:11:53.479Z,64.54
2023-05-06T03:14:20.846Z,63.78
2023-05-06T03:16:48.280Z,63.15
2023-05-06T03:19:16.260Z,62.40
2023-05-06T03:21:44.572Z,61.97
2023-05-06T03:24:11.853Z,60.66
2023-05-06T03:26:39.264Z,60.30
2023-05-06T03:29:06.632Z,59.39
2023-05-06T03:31:35.566Z,57.83
2023-05-06T03:34:03.128Z,57.58
2023-05-06T03:36:31.910Z,57.22
2023-05-06T03:38:59.441Z,55.09
2023-05-06T03:41:26.839Z,54.06
2023-05-06T03:43:56.056Z,54.17
2023-05-06T03:46:25.701Z,52.61
2023-05-06T03:48:53.269Z,52.45
2023-05-06T03:51:21.040Z,53.85
2023-05-06T03:53:48.421Z,53.45
2023-05-06T03:56:18.370Z,52.76
2023-05-06T03:58:46.987Z,51.36
2023-05-06T04:01:14.972Z,50.12
2023-05-06T04:03:42.424Z,48.96
2023-05-06T04:06:09.930Z,47.29
2023-05-06T04:08:37.066Z,47.49
2023-05-06T04:11:08.052Z,45.93
2023-05-06T04:13:36.855Z,44.72
2023-05-06T04:16:06.581Z,43.01
2023-05-06T04:18:36.727Z,42.75
2023-05-06T04:21:07.055Z,41.04
2023-05-06T04:23:36.277Z,41.04
2023-05-06T04:26:04.593Z,40.59
2023-05-06T04:28:33.177Z,39.47
2023-05-06T04:31:01.995Z,39.04
2023-05-06T04:33:38.112Z,38.64
2023-05-06T04:36:09.017Z,37.85
2023-05-06T04:38:37.585Z,36.72
2023-05-06T04:41:05.745Z,36.91
2023-05-06T04:43:33.840Z,36.32
2023-05-06T04:46:08.588Z,35.47
2023-05-06T04:48:37.374Z,35.82
2023-05-06T04:51:05.474Z,34.29
2023-05-06T04:53:33.469Z,33.80
2023-05-06T04:56:01.224Z,33.36
2023-05-06T04:58:28.435Z,32.83
2023-05-06T05:00:57.401Z,31.68
2023-05-06T05:03:25.869Z,30.69
2023-05-06T05:05:53.909Z,29.22
2023-05-06T05:08:21.507Z,29.76
2023-05-06T05:10:48.653Z,28.59
2023-05-06T05:13:20.078Z,27.87
2023-05-06T05:15:47.800Z,27.92
2023-05-06T05:18:15.514Z,28.43
2023-05-06T05:20:43.300Z,27.55
2023-05-06T05:23:11.530Z,26.72
2023-05-06T05:25:38.712Z,25.63
2023-05-06T05:28:06.311Z,25.60
2023-05-06T05:30:33.674Z,25.58
2023-05-06T05:33:00.978Z,24.47
2023-05-06T05:35:28.042Z,23.54
2023-05-06T05:37:55.561Z,22.71
2023-05-06T05:40:23.411Z,23.45
2023-05-06T05:42:52.403Z,23.44
2023-05-06T05:45:24.925Z,22.86
2023-05-06T05:47:54.135Z,22.33
2023-05-06T05:50:21.676Z,21.74
2023-05-06T05:52:49.638Z,21.33
2023-05-06T05:55:17.423Z,21.98
2023-05-06T05:57:45.934Z,21.24
2023-05-06T06:00:14.068Z,20.67
2023-05-06T06:02:44.477Z,20.61
2023-05-06T06:05:12.238Z,20.11
2023-05-06T06:07:39.876Z,19.98
2023-05-06T06:10:08.228Z,20.00
2023-05-06T06:12:35.865Z,19.88
2023-05-06T06:15:05.801Z,19.08
2023-05-06T06:17:33.291Z,20.00
2023-05-06T06:20:02.261Z,18.58
2023-05-06T06:22:29.746Z,17.93
2023-05-06T06:24:56.795Z,17.04
2023-05-06T06:27:27.477Z,17.57
2023-05-06T06:29:55.184Z,17.02
2023-05-06T06:32:22.337Z,16.18
2023-05-06T06:34:49.633Z,16.22
2023-05-06T06:37:16.746Z,16.03
2023-05-06T06:39:43.917Z,15.88
2023-05-06T06:42:10.922Z,16.04
2023-05-06T06:44:47.408Z,17.12
2023-05-06T06:47:14.583Z,17.95
2023-05-06T06:49:41.895Z,19.72
2023-05-06T06:52:09.713Z,21.18
2023-05-06T06:54:39.037Z,21.81
2023-05-06T06:57:09.647Z,22.33
2023-05-06T06:59:36.721Z,23.01
2023-05-06T07:02:03.851Z,24.60
2023-05-06T07:04:31.068Z,24.99
2023-05-06T07:06:58.567Z,24.71
2023-05-06T07:09:25.725Z,25.95
2023-05-06T07:11:52.949Z,26.32
2023-05-06T07:14:20.839Z,25.88
2023-05-06T07:16:50.080Z,26.44
2023-05-06T07:19:18.594Z,27.32
2023-05-06T07:21:46.020Z,26.81
2023-05-06T07:24:13.106Z,27.12
2023-05-06T07:26:40.934Z,28.02
2023-05-06T07:29:08.004Z,28.39
2023-05-06T07:31:36.830Z,28.48
2023-05-06T07:34:04.024Z,28.06
2023-05-06T07:36:36.494Z,29.21
2023-05-06T07:39:05.641Z,29.27
2023-05-06T07:41:32.973Z,29.73
2023-05-06T07:44:00.050Z,30.75
2023-05-06T07:46:27.375Z,29.93
2023-05-06T07:48:54.787Z,28.43
2023-05-06T07:51:22.404Z,29.29
2023-05-06T07:53:49.973Z,30.38
2023-05-06T07:56:18.390Z,29.66
2023-05-06T07:58:45.772Z,29.55
2023-05-06T08:01:12.918Z,30.22
2023-05-06T08:03:40.638Z,30.54
2023-05-06T08:06:08.616Z,30.78
2023-05-06T08:08:35.768Z,31.57
2023-05-06T08:11:03.342Z,31.28
2023-05-06T08:13:30.860Z,31.58
2023-05-06T08:15:58.549Z,31.26
2023-05-06T08:18:26.035Z,30.91
2023-05-06T08:20:53.165Z,31.22
2023-05-06T08:23:21.180Z,31.40
2023-05-06T08:25:48.384Z,31.38
2023-05-06T08:28:15.496Z,31.97
2023-05-06T08:30:42.988Z,32.51
2023-05-06T08:33:10.867Z,31.19
2023-05-06T08:35:38.103Z,33.23
2023-05-06T08:38:05.847Z,33.82
2023-05-06T08:40:33.867Z,33.84
2023-05-06T08:43:03.880Z,34.25
2023-05-06T08:45:33.520Z,33.24
2023-05-06T08:48:00.812Z,33.02
2023-05-06T08:50:28.515Z,32.46
2023-05-06T08:52:56.042Z,32.39
2023-05-06T08:55:25.338Z,33.85
2023-05-06T08:57:53.509Z,33.38
2023-05-06T09:00:21.070Z,32.69
2023-05-06T09:02:48.751Z,31.74
2023-05-06T09:05:16.585Z,31.89
2023-05-06T09:07:43.969Z,31.89
2023-05-06T09:10:15.264Z,31.71
2023-05-06T09:12:42.646Z,32.03
2023-05-06T09:15:11.116Z,32.47
2023-05-06T09:17:38.828Z,32.01
2023-05-06T09:20:09.816Z,31.80
2023-05-06T09:22:41.157Z,32.41
2023-05-06T09:25:10.047Z,31.75
2023-05-06T09:27:37.934Z,31.87
2023-05-06T09:30:13.251Z,31.74
2023-05-06T09:32:41.931Z,32.57
2023-05-06T09:35:10.846Z,32.90
2023-05-06T09:37:38.259Z,32.71
2023-05-06T09:40:06.284Z,32.49
2023-05-06T09:42:34.537Z,32.45
2023-05-06T09:45:02.652Z,32.61
2023-05-06T09:47:34.604Z,33.28
2023-05-06T09:50:03.411Z,32.33
2023-05-06T09:52:31.644Z,32.81
2023-05-06T09:54:59.652Z,32.23
2023-05-06T09:57:30.790Z,31.87
2023-05-06T10:00:00.966Z,32.25
2023-05-06T10:02:29.089Z,32.43
2023-05-06T10:04:57.883Z,31.79
2023-05-06T10:07:28.968Z,32.06
2023-05-06T10:09:58.804Z,32.31
2023-05-06T10:12:26.513Z,32.39
2023-05-06T10:14:54.059Z,32.87
2023-05-06T10:17:25.510Z,33.15
2023-05-06T10:19:57.355Z,33.26
2023-05-06T10:22:34.420Z,33.33
2023-05-06T10:25:29.964Z,33.31
2023-05-06T10:27:57.622Z,33.14
2023-05-06T10:30:28.486Z,33.06
2023-05-06T10:33:00.267Z,33.27
2023-05-06T10:35:58.656Z,33.35
2023-05-06T10:38:46.782Z,33.52
2023-05-06T10:41:14.507Z,33.07
2023-05-06T10:43:44.218Z,33.84
2023-05-06T10:46:17.092Z,34.77
2023-05-06T10:49:06.755Z,33.34
2023-05-06T10:51:34.942Z,36.99
2023-05-06T10:54:07.098Z,35.92
2023-05-06T10:56:36.863Z,35.67
2023-05-06T10:59:08.342Z,34.63
2023-05-06T11:01:44.226Z,32.84
2023-05-06T11:04:18.880Z,32.83
2023-05-06T11:06:48.592Z,31.47
2023-05-06T11:09:18.064Z,32.02
2023-05-06T11:11:52.703Z,32.19
2023-05-06T11:14:37.254Z,31.65
2023-05-06T11:17:09.427Z,31.41
2023-05-06T11:19:38.785Z,32.49
2023-05-06T11:22:07.305Z,33.56
2023-05-06T11:24:42.813Z,32.30
2023-05-06T11:27:11.257Z,31.45
2023-05-06T11:29:38.416Z,31.08
2023-05-06T11:32:17.778Z,31.43
2023-05-06T11:34:45.161Z,31.98
2023-05-06T11:37:12.171Z,32.28
2023-05-06T11:39:40.811Z,31.96
2023-05-06T11:42:09.290Z,32.74
2023-05-06T11:44:38.278Z,32.76
2023-05-06T11:47:07.768Z,32.05
2023-05-06T11:49:40.551Z,32.60
2023-05-06T11:52:12.754Z,32.63
2023-05-06T11:54:41.984Z,32.10
2023-05-06T11:57:09.856Z,31.58
2023-05-06T11:59:41.557Z,31.65
2023-05-06T12:02:12.066Z,32.89
2023-05-06T12:04:41.453Z,31.99
2023-05-06T12:07:11.402Z,32.83
2023-05-06T12:09:41.936Z,33.06
2023-05-06T12:12:11.051Z,32.22
2023-05-06T12:14:39.771Z,32.53
2023-05-06T12:17:07.317Z,31.79
2023-05-06T12:19:36.847Z,30.86
2023-05-06T12:22:24.911Z,31.87
2023-05-06T12:24:52.583Z,31.95
2023-05-06T12:27:31.337Z,32.11
2023-05-06T12:29:58.751Z,32.45
2023-05-06T12:32:25.799Z,32.46
2023-05-06T12:34:53.255Z,32.46
2023-05-06T12:37:26.295Z,31.78
2023-05-06T12:39:55.174Z,31.18
2023-05-06T12:42:24.899Z,32.80
2023-05-06T12:44:52.072Z,33.19
2023-05-06T12:47:24.755Z,32.40
2023-05-06T12:49:54.066Z,32.36
2023-05-06T12:52:23.210Z,32.51
2023-05-06T12:54:50.576Z,32.13
2023-05-06T12:57:17.913Z,32.45
2023-05-06T12:59:46.154Z,32.25
2023-05-06T13:02:14.069Z,32.09
2023-05-06T13:04:42.091Z,31.87
2023-05-06T13:07:09.212Z,32.60
2023-05-06T13:09:36.630Z,32.37
2023-05-06T13:12:05.178Z,32.35
2023-05-06T13:14:32.243Z,31.88
2023-05-06T13:17:01.530Z,32.24
2023-05-06T13:19:33.072Z,32.24
2023-05-06T13:22:01.410Z,31.84
2023-05-06T13:24:29.922Z,32.78
2023-05-06T13:26:59.503Z,33.06
2023-05-06T13:29:26.917Z,32.88
2023-05-06T13:31:54.856Z,32.60
2023-05-06T13:34:22.045Z,32.65
2023-05-06T13:36:49.742Z,33.44
2023-05-06T13:39:17.084Z,33.12
2023-05-06T13:41:48.041Z,32.73
2023-05-06T13:44:15.317Z,33.71
2023-05-06T13:46:44.895Z,33.93
2023-05-06T13:49:14.766Z,33.40
2023-05-06T13:51:41.826Z,33.19
2023-05-06T13:54:09.460Z,33.62
2023-05-06T13:56:36.517Z,33.02
2023-05-06T13:59:04.346Z,33.49
2023-05-06T14:01:31.691Z,33.82
2023-05-06T14:03:58.814Z,33.87
2023-05-06T14:06:25.988Z,34.21
2023-05-06T14:08:53.473Z,33.00
2023-05-06T14:11:20.890Z,33.05
2023-05-06T14:13:48.336Z,30.91
2023-05-06T14:16:17.096Z,30.25
2023-05-06T14:18:44.137Z,28.63
2023-05-06T14:21:11.122Z,28.69
2023-05-06T14:23:38.530Z,28.63
2023-05-06T14:26:05.637Z,28.68
2023-05-06T14:28:32.817Z,28.86
2023-05-06T14:31:00.128Z,28.61
2023-05-06T14:33:27.332Z,31.52
2023-05-06T14:35:54.459Z,32.97
2023-05-06T14:38:21.758Z,33.10
2023-05-06T14:40:48.938Z,32.66
2023-05-06T14:43:16.236Z,33.27
2023-05-06T14:45:43.634Z,34.20
2023-05-06T14:48:11.121Z,34.04
2023-05-06T14:50:38.620Z,33.81
2023-05-06T14:53:05.884Z,33.72
2023-05-06T14:55:33.248Z,34.07
2023-05-06T14:58:00.327Z,32.31
2023-05-06T15:00:27.915Z,31.04
2023-05-06T15:02:55.070Z,29.57
2023-05-06T15:05:22.242Z,29.25
2023-05-06T15:07:49.498Z,29.40
2023-05-06T15:10:16.686Z,28.85
2023-05-06T15:12:43.746Z,28.82
2023-05-06T15:15:11.334Z,28.63
2023-05-06T15:17:39.641Z,29.01
2023-05-06T15:20:08.872Z,29.15
2023-05-06T15:22:39.192Z,29.31
2023-05-06T15:25:09.509Z,29.54
2023-05-06T15:27:39.647Z,29.64
2023-05-06T15:30:08.601Z,29.86
2023-05-06T15:32:35.739Z,30.30
2023-05-06T15:35:05.251Z,30.21
2023-05-06T15:37:34.378Z,29.41
2023-05-06T15:40:01.524Z,29.53
2023-05-06T15:42:30.303Z,29.70
2023-05-06T15:44:58.017Z,29.81
2023-05-06T15:47:25.110Z,30.32
2023-05-06T15:49:55.083Z,29.79
2023-05-06T15:52:23.253Z,29.75
2023-05-06T15:54:51.225Z,29.87
2023-05-06T15:57:18.774Z,30.32
2023-05-06T15:59:47.991Z,30.83
2023-05-06T16:02:26.923Z,31.08
2023-05-06T16:04:55.300Z,31.15
2023-05-06T16:07:22.771Z,31.11
2023-05-06T16:09:50.574Z,30.88
2023-05-06T16:12:20.383Z,31.34
2023-05-06T16:14:50.241Z,31.17
2023-05-06T16:17:18.203Z,31.03
2023-05-06T16:19:45.299Z,31.28
2023-05-06T16:22:12.946Z,31.42
2023-05-06T16:24:40.188Z,31.56
2023-05-06T16:27:09.528Z,32.01
2023-05-06T16:29:39.245Z,31.98
2023-05-06T16:32:06.606Z,32.24
2023-05-06T16:34:33.687Z,32.57
2023-05-06T16:37:01.149Z,32.47
2023-05-06T16:39:28.935Z,32.42
2023-05-06T16:41:56.089Z,32.68
2023-05-06T16:44:23.185Z,33.11
2023-05-06T16:46:50.542Z,33.13
2023-05-06T16:49:19.644Z,32.44
2023-05-06T16:51:46.840Z,32.47
2023-05-06T16:54:14.535Z,32.53
2023-05-06T16:56:51.412Z,32.72
2023-05-06T16:59:22.197Z,32.77
2023-05-06T17:01:50.444Z,32.99
2023-05-06T17:04:17.719Z,33.33
2023-05-06T17:06:45.398Z,33.74
2023-05-06T17:09:12.558Z,33.84
2023-05-06T17:11:39.616Z,34.29
2023-05-06T17:14:06.973Z,34.39
2023-05-06T17:16:34.336Z,34.49
2023-05-06T17:19:01.410Z,34.61
2023-05-06T17:21:28.830Z,34.92
2023-05-06T17:23:56.056Z,35.01
2023-05-06T17:26:23.358Z,34.84
2023-05-06T17:28:51.646Z,35.18
2023-05-06T17:31:19.114Z,35.60
2023-05-06T17:33:46.407Z,35.75
2023-05-06T17:36:14.168Z,35.94
2023-05-06T17:38:41.530Z,36.28
2023-05-06T17:41:09.173Z,36.06
2023-05-06T17:43:36.908Z,36.27
2023-05-06T17:46:04.025Z,36.09
2023-05-06T17:48:31.699Z,36.13
2023-05-06T17:51:02.945Z,36.08
2023-05-06T17:53:32.443Z,36.17
2023-05-06T17:55:59.582Z,36.49
2023-05-06T17:58:27.090Z,36.30
2023-05-06T18:00:54.438Z,36.61
2023-05-06T18:03:22.828Z,36.52
2023-05-06T18:05:51.318Z,36.70
2023-05-06T18:08:18.636Z,36.50
2023-05-06T18:10:46.403Z,36.60
2023-05-06T18:13:13.449Z,36.75
2023-05-06T18:15:40.643Z,36.73
2023-05-06T18:18:07.910Z,37.09
2023-05-06T18:20:35.007Z,37.22
2023-05-06T18:23:02.177Z,37.20
2023-05-06T18:25:29.714Z,37.47
2023-05-06T18:27:56.857Z,37.76
2023-05-06T18:30:24.328Z,37.83
2023-05-06T18:32:53.328Z,38.09
2023-05-06T18:35:21.753Z,38.18
2023-05-06T18:37:49.317Z,38.57
2023-05-06T18:40:16.766Z,38.66
2023-05-06T18:42:44.038Z,38.75
2023-05-06T18:45:12.103Z,38.68
2023-05-06T18:47:40.422Z,38.80
2023-05-06T18:50:08.694Z,38.92
2023-05-06T18:52:38.643Z,38.95
2023-05-06T18:55:07.782Z,38.86
2023-05-06T18:57:34.957Z,38.78
2023-05-06T19:00:02.122Z,38.87
2023-05-06T19:02:29.954Z,39.30
2023-05-06T19:04:58.323Z,39.38
2023-05-06T19:07:25.421Z,39.23
2023-05-06T19:09:53.006Z,39.07
2023-05-06T19:12:20.062Z,39.26
2023-05-06T19:14:48.161Z,39.54
2023-05-06T19:17:16.106Z,39.18
2023-05-06T19:19:46.024Z,39.22
2023-05-06T19:22:13.941Z,39.47
2023-05-06T19:24:41.284Z,39.36
2023-05-06T19:27:08.640Z,39.43
2023-05-06T19:29:35.639Z,39.62
2023-05-06T19:32:03.403Z,39.91
2023-05-06T19:34:30.598Z,39.81
2023-05-06T19:36:58.445Z,39.88
2023-05-06T19:39:25.995Z,40.30
2023-05-06T19:41:55.187Z,40.38
2023-05-06T19:44:22.405Z,40.45
2023-05-06T19:46:53.382Z,40.43
2023-05-06T19:49:20.725Z,40.84
2023-05-06T19:51:47.920Z,40.56
2023-05-06T19:54:15.603Z,40.92
2023-05-06T19:56:43.856Z,41.08
2023-05-06T19:59:10.945Z,41.02
2023-05-06T20:01:38.378Z,41.43
2023-05-06T20:04:05.670Z,41.18
2023-05-06T20:06:33.272Z,41.54
2023-05-06T20:09:00.529Z,41.80
2023-05-06T20:11:27.686Z,42.01
2023-05-06T20:13:55.102Z,41.76
2023-05-06T20:16:22.760Z,41.94
2023-05-06T20:18:51.695Z,41.95
2023-05-06T20:21:18.869Z,42.21
2023-05-06T20:23:46.006Z,42.19
2023-05-06T20:26:13.055Z,42.41
2023-05-06T20:28:40.484Z,42.22
2023-05-06T20:31:07.763Z,42.37
2023-05-06T20:33:35.254Z,42.32
2023-05-06T20:36:02.422Z,42.72
2023-05-06T20:38:31.087Z,42.65
2023-05-06T20:40:59.216Z,42.77
2023-05-06T20:43:26.290Z,43.23
2023-05-06T20:45:53.919Z,43.22
2023-05-06T20:48:21.065Z,43.33
2023-05-06T20:50:48.520Z,43.23
2023-05-06T20:53:15.691Z,43.53
2023-05-06T20:55:42.901Z,43.64
2023-05-06T20:58:10.222Z,43.42
2023-05-06T21:00:37.420Z,43.27
2023-05-06T21:03:04.700Z,42.85
2023-05-06T21:05:32.424Z,43.13
2023-05-06T21:08:00.212Z,43.10
2023-05-06T21:10:27.279Z,43.31
2023-05-06T21:12:54.639Z,43.61
2023-05-06T21:15:22.433Z,44.04
2023-05-06T21:17:49.866Z,44.05
2023-05-06T21:20:17.109Z,44.18
2023-05-06T21:22:44.669Z,44.49
2023-05-06T21:25:13.488Z,44.25
2023-05-06T21:27:40.664Z,44.74
2023-05-06T21:30:09.271Z,44.85
2023-05-06T21:32:38.222Z,44.80
2023-05-06T21:35:05.744Z,45.05
2023-05-06T21:37:33.089Z,45.18
2023-05-06T21:40:02.835Z,44.96
2023-05-06T21:42:30.870Z,45.52
2023-05-06T21:44:58.229Z,45.75
2023-05-06T21:47:25.718Z,45.81
2023-05-06T21:49:53.106Z,45.96
2023-05-06T21:52:21.589Z,46.52
2023-05-06T21:54:48.779Z,46.56
2023-05-06T21:57:16.650Z,46.56
2023-05-06T21:59:43.959Z,46.19
2023-05-06T22:02:12.618Z,46.46
2023-05-06T22:04:39.776Z,46.74
2023-05-06T22:07:07.662Z,46.40
2023-05-06T22:09:34.888Z,46.80
2023-05-06T22:12:06.929Z,46.96
2023-05-06T22:14:40.912Z,47.09
2023-05-06T22:17:10.590Z,47.13
2023-05-06T22:19:38.730Z,46.99
2023-05-06T22:22:08.692Z,47.10
2023-05-06T22:24:39.830Z,47.43
2023-05-06T22:27:06.822Z,47.31
2023-05-06T22:29:35.184Z,47.15
2023-05-06T22:32:03.651Z,47.46
2023-05-06T22:34:30.876Z,47.70
2023-05-06T22:36:59.147Z,47.67
2023-05-06T22:39:30.740Z,48.06
2023-05-06T22:41:57.733Z,47.88
2023-05-06T22:44:25.030Z,48.07
2023-05-06T22:46:52.365Z,47.84
2023-05-06T22:49:19.964Z,48.55
2023-05-06T22:51:47.157Z,48.52
2023-05-06T22:54:14.426Z,48.97
2023-05-06T22:56:41.397Z,49.11
2023-05-06T22:59:08.504Z,48.46
2023-05-06T23:01:35.793Z,48.28
2023-05-06T23:04:03.014Z,48.74
2023-05-06T23:06:31.371Z,49.16
2023-05-06T23:08:58.473Z,48.97
2023-05-06T23:11:25.684Z,49.53
2023-05-06T23:13:52.935Z,49.63
2023-05-06T23:16:20.103Z,49.87
2023-05-06T23:18:47.385Z,49.65
2023-05-06T23:21:15.433Z,49.11
2023-05-06T23:23:42.490Z,49.53
2023-05-06T23:26:09.656Z,50.46
2023-05-06T23:28:36.943Z,49.97
2023-05-06T23:31:04.415Z,50.02
2023-05-06T23:33:31.498Z,50.56
2023-05-06T23:36:02.820Z,49.88
2023-05-06T23:38:30.184Z,50.50
2023-05-06T23:40:57.426Z,50.55
2023-05-06T23:43:24.774Z,50.26
2023-05-06T23:45:52.072Z,50.62
2023-05-06T23:48:19.182Z,50.62
2023-05-06T23:50:46.478Z,50.49
2023-05-06T23:53:13.772Z,50.60
2023-05-06T23:55:42.838Z,51.13
2023-05-06T23:58:10.658Z,50.81
